Terminal Aerodrome Forecast
Issued by NWS

Home | Current Version | Previous Version | Text Only | Print | Product List | Glossary On
Versions: 1 2 3 4 5 6 7 8 9 10 11 12 13 14 15 16 17
000
FTUS44 KJAN 271400 AAA
TAFHKS
TAF AMD
KHKS 271412Z 2714/2812 13008KT P6SM VCSH BKN012
     FM271800 15008KT 4SM SHRA BR VCTS BKN008 OVC015CB
     FM280200 17008KT 2SM +SHRA BR VCTS OVC007CB=

USA.gov is the U.S. government's official web portal to all federal, state and local government web resources and services.